sensor_id;sensor_type;location;lat;lon;timestamp;temperature;humidity
14122;DHT22;7139;48.114;11.442;2023-02-24T00:00:59;5.70;99.90
14122;DHT22;7139;48.114;11.442;2023-02-24T00:03:34;5.60;99.90
14122;DHT22;7139;48.114;11.442;2023-02-24T00:06:02;5.70;99.90
14122;DHT22;7139;48.114;11.442;2023-02-24T00:08:35;5.60;99.90
14122;DHT22;7139;48.114;11.442;2023-02-24T00:11:07;5.60;99.90
14122;DHT22;7139;48.114;11.442;2023-02-24T00:13:34;5.60;99.90
14122;DHT22;7139;48.114;11.442;2023-02-24T00:16:02;5.60;99.90
14122;DHT22;7139;48.114;11.442;2023-02-24T00:18:31;5.50;99.90
14122;DHT22;7139;48.114;11.442;2023-02-24T00:21:02;5.50;99.90
14122;DHT22;7139;48.114;11.442;2023-02-24T00:23:34;5.50;99.90
14122;DHT22;7139;48.114;11.442;2023-02-24T00:26:01;5.50;99.90
14122;DHT22;7139;48.114;11.442;2023-02-24T00:28:28;5.40;99.90
14122;DHT22;7139;48.114;11.442;2023-02-24T00:30:55;5.40;99.90
14122;DHT22;7139;48.114;11.442;2023-02-24T00:33:22;5.30;99.90
14122;DHT22;7139;48.114;11.442;2023-02-24T00:35:49;5.30;99.90
14122;DHT22;7139;48.114;11.442;2023-02-24T00:38:17;5.30;99.90
14122;DHT22;7139;48.114;11.442;2023-02-24T00:40:45;5.30;99.90
14122;DHT22;7139;48.114;11.442;2023-02-24T00:43:12;5.30;99.90
14122;DHT22;7139;48.114;11.442;2023-02-24T00:45:39;5.20;99.90
14122;DHT22;7139;48.114;11.442;2023-02-24T00:48:06;5.20;99.90
14122;DHT22;7139;48.114;11.442;2023-02-24T00:50:35;5.20;99.90
14122;DHT22;7139;48.114;11.442;2023-02-24T00:53:04;5.20;99.90
14122;DHT22;7139;48.114;11.442;2023-02-24T00:55:31;5.10;99.90
14122;DHT22;7139;48.114;11.442;2023-02-24T00:58:02;5.10;99.90
14122;DHT22;7139;48.114;11.442;2023-02-24T01:00:31;5.00;99.90
14122;DHT22;7139;48.114;11.442;2023-02-24T01:03:01;5.00;99.90
14122;DHT22;7139;48.114;11.442;2023-02-24T01:05:28;4.90;99.90
14122;DHT22;7139;48.114;11.442;2023-02-24T01:07:55;4.90;99.90
14122;DHT22;7139;48.114;11.442;2023-02-24T01:10:22;4.90;99.90
14122;DHT22;7139;48.114;11.442;2023-02-24T01:12:51;4.90;99.90
14122;DHT22;7139;48.114;11.442;2023-02-24T01:15:21;4.90;99.90
14122;DHT22;7139;48.114;11.442;2023-02-24T01:17:48;4.90;99.90
14122;DHT22;7139;48.114;11.442;2023-02-24T01:20:15;4.90;99.90
14122;DHT22;7139;48.114;11.442;2023-02-24T01:22:45;5.00;99.90
14122;DHT22;7139;48.114;11.442;2023-02-24T01:25:12;5.00;99.90
14122;DHT22;7139;48.114;11.442;2023-02-24T01:27:39;5.10;99.90
14122;DHT22;7139;48.114;11.442;2023-02-24T01:30:07;5.10;99.90
14122;DHT22;7139;48.114;11.442;2023-02-24T01:32:39;5.10;99.90
14122;DHT22;7139;48.114;11.442;2023-02-24T01:35:06;5.10;99.90
14122;DHT22;7139;48.114;11.442;2023-02-24T01:37:33;5.10;99.90
14122;DHT22;7139;48.114;11.442;2023-02-24T01:40:00;5.10;99.90
14122;DHT22;7139;48.114;11.442;2023-02-24T01:42:35;5.10;99.90
14122;DHT22;7139;48.114;11.442;2023-02-24T01:45:24;5.10;99.90
14122;DHT22;7139;48.114;11.442;2023-02-24T01:47:56;5.10;99.90
14122;DHT22;7139;48.114;11.442;2023-02-24T01:50:25;5.10;99.90
14122;DHT22;7139;48.114;11.442;2023-02-24T01:52:55;5.10;99.90
14122;DHT22;7139;48.114;11.442;2023-02-24T01:55:25;5.10;99.90
14122;DHT22;7139;48.114;11.442;2023-02-24T01:57:58;5.10;99.90
14122;DHT22;7139;48.114;11.442;2023-02-24T02:00:26;5.00;99.90
14122;DHT22;7139;48.114;11.442;2023-02-24T02:03:11;5.00;99.90
14122;DHT22;7139;48.114;11.442;2023-02-24T02:05:41;5.00;99.90
14122;DHT22;7139;48.114;11.442;2023-02-24T02:08:09;5.00;99.90
14122;DHT22;7139;48.114;11.442;2023-02-24T02:10:39;5.00;99.90
14122;DHT22;7139;48.114;11.442;2023-02-24T02:13:08;5.00;99.90
14122;DHT22;7139;48.114;11.442;2023-02-24T02:15:44;4.90;99.90
14122;DHT22;7139;48.114;11.442;2023-02-24T02:18:18;4.90;99.90
14122;DHT22;7139;48.114;11.442;2023-02-24T02:21:13;4.90;99.90
14122;DHT22;7139;48.114;11.442;2023-02-24T02:23:56;4.90;99.90
14122;DHT22;7139;48.114;11.442;2023-02-24T02:26:49;4.80;99.90
14122;DHT22;7139;48.114;11.442;2023-02-24T02:29:34;4.80;99.90
14122;DHT22;7139;48.114;11.442;2023-02-24T02:32:41;4.80;99.90
14122;DHT22;7139;48.114;11.442;2023-02-24T02:35:20;4.80;99.90
14122;DHT22;7139;48.114;11.442;2023-02-24T02:37:51;4.70;99.90
14122;DHT22;7139;48.114;11.442;2023-02-24T02:40:25;4.70;99.90
14122;DHT22;7139;48.114;11.442;2023-02-24T02:42:56;4.70;99.90
14122;DHT22;7139;48.114;11.442;2023-02-24T02:45:26;4.60;99.90
14122;DHT22;7139;48.114;11.442;2023-02-24T02:47:59;4.60;99.90
14122;DHT22;7139;48.114;11.442;2023-02-24T02:50:32;4.60;99.90
14122;DHT22;7139;48.114;11.442;2023-02-24T02:53:02;4.60;99.90
14122;DHT22;7139;48.114;11.442;2023-02-24T02:55:34;4.50;99.90
14122;DHT22;7139;48.114;11.442;2023-02-24T02:58:07;4.50;99.90
14122;DHT22;7139;48.114;11.442;2023-02-24T03:00:37;4.50;99.90
14122;DHT22;7139;48.114;11.442;2023-02-24T03:03:09;4.50;99.90
14122;DHT22;7139;48.114;11.442;2023-02-24T03:05:42;4.50;99.90
14122;DHT22;7139;48.114;11.442;2023-02-24T03:08:14;4.40;99.90
14122;DHT22;7139;48.114;11.442;2023-02-24T03:10:44;4.40;99.90
14122;DHT22;7139;48.114;11.442;2023-02-24T03:13:18;4.40;99.90
14122;DHT22;7139;48.114;11.442;2023-02-24T03:15:47;4.40;99.90
14122;DHT22;7139;48.114;11.442;2023-02-24T03:18:19;4.30;99.90
14122;DHT22;7139;48.114;11.442;2023-02-24T03:20:51;4.30;99.90
14122;DHT22;7139;48.114;11.442;2023-02-24T03:23:23;4.30;99.90
14122;DHT22;7139;48.114;11.442;2023-02-24T03:25:53;4.30;99.90
14122;DHT22;7139;48.114;11.442;2023-02-24T03:28:29;4.20;99.90
14122;DHT22;7139;48.114;11.442;2023-02-24T03:31:03;4.20;99.90
14122;DHT22;7139;48.114;11.442;2023-02-24T03:33:35;4.20;99.90
14122;DHT22;7139;48.114;11.442;2023-02-24T03:36:07;4.20;99.90
14122;DHT22;7139;48.114;11.442;2023-02-24T03:38:34;4.20;99.90
14122;DHT22;7139;48.114;11.442;2023-02-24T03:41:03;4.20;99.90
14122;DHT22;7139;48.114;11.442;2023-02-24T03:43:38;4.20;99.90
14122;DHT22;7139;48.114;11.442;2023-02-24T03:46:06;4.20;99.90
14122;DHT22;7139;48.114;11.442;2023-02-24T03:48:39;4.20;99.90
14122;DHT22;7139;48.114;11.442;2023-02-24T03:51:13;4.20;99.90
14122;DHT22;7139;48.114;11.442;2023-02-24T03:53:55;4.20;99.90
14122;DHT22;7139;48.114;11.442;2023-02-24T03:56:28;4.20;99.90
14122;DHT22;7139;48.114;11.442;2023-02-24T03:59:08;4.20;99.90
14122;DHT22;7139;48.114;11.442;2023-02-24T04:01:46;4.20;99.90
14122;DHT22;7139;48.114;11.442;2023-02-24T04:04:21;4.20;99.90
14122;DHT22;7139;48.114;11.442;2023-02-24T04:06:56;4.30;99.90
14122;DHT22;7139;48.114;11.442;2023-02-24T04:09:28;4.30;99.90
14122;DHT22;7139;48.114;11.442;2023-02-24T04:12:06;4.30;99.90
14122;DHT22;7139;48.114;11.442;2023-02-24T04:14:40;4.40;99.90
14122;DHT22;7139;48.114;11.442;2023-02-24T04:17:13;4.40;99.90
14122;DHT22;7139;48.114;11.442;2023-02-24T04:19:45;4.40;99.90
14122;DHT22;7139;48.114;11.442;2023-02-24T04:22:17;4.40;99.90
14122;DHT22;7139;48.114;11.442;2023-02-24T04:24:50;4.40;99.90
14122;DHT22;7139;48.114;11.442;2023-02-24T04:27:18;4.40;99.90
14122;DHT22;7139;48.114;11.442;2023-02-24T04:29:49;4.40;99.90
14122;DHT22;7139;48.114;11.442;2023-02-24T04:32:20;4.40;99.90
14122;DHT22;7139;48.114;11.442;2023-02-24T04:34:49;4.40;99.90
14122;DHT22;7139;48.114;11.442;2023-02-24T04:37:18;4.40;99.90
14122;DHT22;7139;48.114;11.442;2023-02-24T04:39:47;4.40;99.90
14122;DHT22;7139;48.114;11.442;2023-02-24T04:42:15;4.40;99.90
14122;DHT22;7139;48.114;11.442;2023-02-24T04:44:44;4.40;99.90
14122;DHT22;7139;48.114;11.442;2023-02-24T04:47:12;4.40;99.90
14122;DHT22;7139;48.114;11.442;2023-02-24T04:49:39;4.40;99.90
14122;DHT22;7139;48.114;11.442;2023-02-24T04:52:06;4.40;99.90
14122;DHT22;7139;48.114;11.442;2023-02-24T04:54:36;4.40;99.90
14122;DHT22;7139;48.114;11.442;2023-02-24T04:57:03;4.40;99.90
14122;DHT22;7139;48.114;11.442;2023-02-24T04:59:31;4.40;99.90
14122;DHT22;7139;48.114;11.442;2023-02-24T05:01:58;4.40;99.90
14122;DHT22;7139;48.114;11.442;2023-02-24T05:04:26;4.30;99.90
14122;DHT22;7139;48.114;11.442;2023-02-24T05:06:55;4.40;99.90
14122;DHT22;7139;48.114;11.442;2023-02-24T05:09:23;4.30;99.90
14122;DHT22;7139;48.114;11.442;2023-02-24T05:11:56;4.30;99.90
14122;DHT22;7139;48.114;11.442;2023-02-24T05:14:23;4.30;99.90
14122;DHT22;7139;48.114;11.442;2023-02-24T05:16:50;4.20;99.90
14122;DHT22;7139;48.114;11.442;2023-02-24T05:19:18;4.20;99.90
14122;DHT22;7139;48.114;11.442;2023-02-24T05:22:04;4.10;99.90
14122;DHT22;7139;48.114;11.442;2023-02-24T05:24:31;4.10;99.90
14122;DHT22;7139;48.114;11.442;2023-02-24T05:27:00;4.10;99.90
14122;DHT22;7139;48.114;11.442;2023-02-24T05:29:30;4.10;99.90
14122;DHT22;7139;48.114;11.442;2023-02-24T05:31:58;4.10;99.90
14122;DHT22;7139;48.114;11.442;2023-02-24T05:34:25;4.00;99.90
14122;DHT22;7139;48.114;11.442;2023-02-24T05:36:55;4.10;99.90
14122;DHT22;7139;48.114;11.442;2023-02-24T05:39:22;4.00;99.90
14122;DHT22;7139;48.114;11.442;2023-02-24T05:41:52;4.00;99.90
14122;DHT22;7139;48.114;11.442;2023-02-24T05:44:24;4.00;99.90
14122;DHT22;7139;48.114;11.442;2023-02-24T05:46:53;4.00;99.90
14122;DHT22;7139;48.114;11.442;2023-02-24T05:49:24;4.10;99.90
14122;DHT22;7139;48.114;11.442;2023-02-24T05:51:53;4.10;99.90
14122;DHT22;7139;48.114;11.442;2023-02-24T05:54:22;4.10;99.90
14122;DHT22;7139;48.114;11.442;2023-02-24T05:56:50;4.10;99.90
14122;DHT22;7139;48.114;11.442;2023-02-24T05:59:17;4.10;99.90
14122;DHT22;7139;48.114;11.442;2023-02-24T06:01:48;4.20;99.90
14122;DHT22;7139;48.114;11.442;2023-02-24T06:04:17;4.20;99.90
14122;DHT22;7139;48.114;11.442;2023-02-24T06:07:04;4.20;99.90
14122;DHT22;7139;48.114;11.442;2023-02-24T06:09:31;4.20;99.90
14122;DHT22;7139;48.114;11.442;2023-02-24T06:11:59;4.30;99.90
14122;DHT22;7139;48.114;11.442;2023-02-24T06:14:27;4.30;99.90
14122;DHT22;7139;48.114;11.442;2023-02-24T06:16:55;4.30;99.90
14122;DHT22;7139;48.114;11.442;2023-02-24T06:19:21;4.30;99.90
14122;DHT22;7139;48.114;11.442;2023-02-24T06:21:49;4.30;99.90
14122;DHT22;7139;48.114;11.442;2023-02-24T06:24:17;4.30;99.90
14122;DHT22;7139;48.114;11.442;2023-02-24T06:26:44;4.20;99.90
14122;DHT22;7139;48.114;11.442;2023-02-24T06:29:12;4.20;99.90
14122;DHT22;7139;48.114;11.442;2023-02-24T06:31:40;4.20;99.90
14122;DHT22;7139;48.114;11.442;2023-02-24T06:34:08;4.20;99.90
14122;DHT22;7139;48.114;11.442;2023-02-24T06:36:36;4.20;99.90
14122;DHT22;7139;48.114;11.442;2023-02-24T06:39:03;4.20;99.90
14122;DHT22;7139;48.114;11.442;2023-02-24T06:41:43;4.20;99.90
14122;DHT22;7139;48.114;11.442;2023-02-24T06:44:10;4.20;99.90
14122;DHT22;7139;48.114;11.442;2023-02-24T06:46:38;4.10;99.90
14122;DHT22;7139;48.114;11.442;2023-02-24T06:49:05;4.10;99.90
14122;DHT22;7139;48.114;11.442;2023-02-24T06:51:35;4.20;99.90
14122;DHT22;7139;48.114;11.442;2023-02-24T06:54:02;4.20;99.90
14122;DHT22;7139;48.114;11.442;2023-02-24T06:56:31;4.20;99.90
14122;DHT22;7139;48.114;11.442;2023-02-24T06:59:04;4.20;99.90
14122;DHT22;7139;48.114;11.442;2023-02-24T07:01:36;4.30;99.90
14122;DHT22;7139;48.114;11.442;2023-02-24T07:04:10;4.30;99.90
14122;DHT22;7139;48.114;11.442;2023-02-24T07:06:51;4.40;99.90
14122;DHT22;7139;48.114;11.442;2023-02-24T07:09:21;4.40;99.90
14122;DHT22;7139;48.114;11.442;2023-02-24T07:11:51;4.50;99.90
14122;DHT22;7139;48.114;11.442;2023-02-24T07:14:21;4.60;99.90
14122;DHT22;7139;48.114;11.442;2023-02-24T07:16:49;4.70;99.90
14122;DHT22;7139;48.114;11.442;2023-02-24T07:19:19;4.80;99.90
14122;DHT22;7139;48.114;11.442;2023-02-24T07:21:46;4.90;99.90
14122;DHT22;7139;48.114;11.442;2023-02-24T07:24:19;5.00;99.90
14122;DHT22;7139;48.114;11.442;2023-02-24T07:27:00;5.20;99.90
14122;DHT22;7139;48.114;11.442;2023-02-24T07:29:29;5.20;99.90
14122;DHT22;7139;48.114;11.442;2023-02-24T07:31:57;5.30;99.90
14122;DHT22;7139;48.114;11.442;2023-02-24T07:34:25;5.40;99.90
14122;DHT22;7139;48.114;11.442;2023-02-24T07:36:54;5.50;99.90
14122;DHT22;7139;48.114;11.442;2023-02-24T07:39:22;5.60;99.90
14122;DHT22;7139;48.114;11.442;2023-02-24T07:41:50;5.70;99.90
14122;DHT22;7139;48.114;11.442;2023-02-24T07:44:20;5.80;99.90
14122;DHT22;7139;48.114;11.442;2023-02-24T07:46:48;5.90;99.90
14122;DHT22;7139;48.114;11.442;2023-02-24T07:49:17;6.10;99.90
14122;DHT22;7139;48.114;11.442;2023-02-24T07:51:44;6.10;99.90
14122;DHT22;7139;48.114;11.442;2023-02-24T07:54:17;6.10;99.90
14122;DHT22;7139;48.114;11.442;2023-02-24T07:56:45;6.20;99.90
14122;DHT22;7139;48.114;11.442;2023-02-24T07:59:21;6.20;99.90
14122;DHT22;7139;48.114;11.442;2023-02-24T08:01:48;6.30;99.90
14122;DHT22;7139;48.114;11.442;2023-02-24T08:04:21;6.30;99.90
14122;DHT22;7139;48.114;11.442;2023-02-24T08:06:50;6.30;99.90
14122;DHT22;7139;48.114;11.442;2023-02-24T08:09:22;6.40;99.90
14122;DHT22;7139;48.114;11.442;2023-02-24T08:12:11;6.50;99.90
14122;DHT22;7139;48.114;11.442;2023-02-24T08:14:42;6.60;99.90
14122;DHT22;7139;48.114;11.442;2023-02-24T08:17:15;6.60;99.90
14122;DHT22;7139;48.114;11.442;2023-02-24T08:19:45;6.70;99.90
14122;DHT22;7139;48.114;11.442;2023-02-24T08:22:13;6.70;99.90
14122;DHT22;7139;48.114;11.442;2023-02-24T08:24:45;6.80;99.90
14122;DHT22;7139;48.114;11.442;2023-02-24T08:27:16;6.90;99.90
14122;DHT22;7139;48.114;11.442;2023-02-24T08:29:46;6.90;99.90
14122;DHT22;7139;48.114;11.442;2023-02-24T08:32:23;7.00;99.90
14122;DHT22;7139;48.114;11.442;2023-02-24T08:34:50;7.00;99.90
14122;DHT22;7139;48.114;11.442;2023-02-24T08:37:21;7.10;99.90
14122;DHT22;7139;48.114;11.442;2023-02-24T08:39:48;7.10;99.90
14122;DHT22;7139;48.114;11.442;2023-02-24T08:42:19;7.20;99.90
14122;DHT22;7139;48.114;11.442;2023-02-24T08:44:55;7.20;99.90
14122;DHT22;7139;48.114;11.442;2023-02-24T08:47:22;7.30;99.90
14122;DHT22;7139;48.114;11.442;2023-02-24T08:49:55;7.40;99.90
14122;DHT22;7139;48.114;11.442;2023-02-24T08:52:24;7.40;99.90
14122;DHT22;7139;48.114;11.442;2023-02-24T08:54:52;7.50;99.90
14122;DHT22;7139;48.114;11.442;2023-02-24T08:57:24;7.60;99.90
14122;DHT22;7139;48.114;11.442;2023-02-24T08:59:51;7.70;99.90
14122;DHT22;7139;48.114;11.442;2023-02-24T09:02:23;7.80;99.90
14122;DHT22;7139;48.114;11.442;2023-02-24T09:04:54;7.90;99.90
14122;DHT22;7139;48.114;11.442;2023-02-24T09:07:23;8.00;99.90
14122;DHT22;7139;48.114;11.442;2023-02-24T09:09:50;8.10;99.90
14122;DHT22;7139;48.114;11.442;2023-02-24T09:12:22;8.10;99.90
14122;DHT22;7139;48.114;11.442;2023-02-24T09:14:54;8.20;99.90
14122;DHT22;7139;48.114;11.442;2023-02-24T09:17:23;8.30;99.90
14122;DHT22;7139;48.114;11.442;2023-02-24T09:20:19;8.40;99.90
14122;DHT22;7139;48.114;11.442;2023-02-24T09:23:15;8.50;99.90
14122;DHT22;7139;48.114;11.442;2023-02-24T09:25:46;8.70;99.90
14122;DHT22;7139;48.114;11.442;2023-02-24T09:28:17;8.80;99.90
14122;DHT22;7139;48.114;11.442;2023-02-24T09:30:45;8.90;99.90
14122;DHT22;7139;48.114;11.442;2023-02-24T09:33:21;8.90;99.90
14122;DHT22;7139;48.114;11.442;2023-02-24T09:35:55;9.00;99.90
14122;DHT22;7139;48.114;11.442;2023-02-24T09:38:39;9.00;99.90
14122;DHT22;7139;48.114;11.442;2023-02-24T09:41:30;9.20;99.90
14122;DHT22;7139;48.114;11.442;2023-02-24T09:43:59;9.40;99.90
14122;DHT22;7139;48.114;11.442;2023-02-24T09:46:31;9.50;99.90
14122;DHT22;7139;48.114;11.442;2023-02-24T09:49:06;9.70;99.90
14122;DHT22;7139;48.114;11.442;2023-02-24T09:51:38;9.70;99.90
14122;DHT22;7139;48.114;11.442;2023-02-24T09:54:13;9.80;99.90
14122;DHT22;7139;48.114;11.442;2023-02-24T09:56:44;9.90;99.90
14122;DHT22;7139;48.114;11.442;2023-02-24T09:59:20;9.90;99.90
14122;DHT22;7139;48.114;11.442;2023-02-24T10:01:58;9.80;99.90
14122;DHT22;7139;48.114;11.442;2023-02-24T10:04:52;9.80;99.90
14122;DHT22;7139;48.114;11.442;2023-02-24T10:07:27;9.90;99.90
14122;DHT22;7139;48.114;11.442;2023-02-24T10:09:57;10.00;99.90
14122;DHT22;7139;48.114;11.442;2023-02-24T10:12:46;10.20;99.90
14122;DHT22;7139;48.114;11.442;2023-02-24T10:15:18;10.40;99.90
14122;DHT22;7139;48.114;11.442;2023-02-24T10:18:22;10.60;99.90
14122;DHT22;7139;48.114;11.442;2023-02-24T10:20:52;10.70;99.90
14122;DHT22;7139;48.114;11.442;2023-02-24T10:23:26;10.80;99.90
14122;DHT22;7139;48.114;11.442;2023-02-24T10:25:59;10.90;99.90
14122;DHT22;7139;48.114;11.442;2023-02-24T10:28:32;10.80;99.90
14122;DHT22;7139;48.114;11.442;2023-02-24T10:31:07;10.90;99.90
14122;DHT22;7139;48.114;11.442;2023-02-24T10:33:37;10.90;99.90
14122;DHT22;7139;48.114;11.442;2023-02-24T10:36:11;11.00;99.90
14122;DHT22;7139;48.114;11.442;2023-02-24T10:38:43;11.00;99.90
14122;DHT22;7139;48.114;11.442;2023-02-24T10:41:11;10.90;99.90
14122;DHT22;7139;48.114;11.442;2023-02-24T10:43:39;11.00;99.90
14122;DHT22;7139;48.114;11.442;2023-02-24T10:46:25;10.90;99.90
14122;DHT22;7139;48.114;11.442;2023-02-24T10:48:59;10.90;99.90
14122;DHT22;7139;48.114;11.442;2023-02-24T10:51:31;11.00;99.90
14122;DHT22;7139;48.114;11.442;2023-02-24T10:54:13;11.00;99.90
14122;DHT22;7139;48.114;11.442;2023-02-24T10:57:03;11.10;99.90
14122;DHT22;7139;48.114;11.442;2023-02-24T10:59:53;11.10;99.90
14122;DHT22;7139;48.114;11.442;2023-02-24T11:02:47;11.10;99.90
14122;DHT22;7139;48.114;11.442;2023-02-24T11:05:35;11.20;99.90
14122;DHT22;7139;48.114;11.442;2023-02-24T11:08:13;11.30;99.90
14122;DHT22;7139;48.114;11.442;2023-02-24T11:11:06;11.30;99.90
14122;DHT22;7139;48.114;11.442;2023-02-24T11:13:47;11.30;99.90
14122;DHT22;7139;48.114;11.442;2023-02-24T11:16:45;11.30;99.90
14122;DHT22;7139;48.114;11.442;2023-02-24T11:19:33;11.30;99.90
14122;DHT22;7139;48.114;11.442;2023-02-24T11:22:04;11.30;99.90
14122;DHT22;7139;48.114;11.442;2023-02-24T11:24:35;11.40;99.90
14122;DHT22;7139;48.114;11.442;2023-02-24T11:27:05;11.40;99.90
14122;DHT22;7139;48.114;11.442;2023-02-24T11:29:42;11.40;99.90
14122;DHT22;7139;48.114;11.442;2023-02-24T11:32:27;11.50;99.90
14122;DHT22;7139;48.114;11.442;2023-02-24T11:35:01;11.50;99.90
14122;DHT22;7139;48.114;11.442;2023-02-24T11:37:35;11.50;99.90
14122;DHT22;7139;48.114;11.442;2023-02-24T11:40:09;11.50;99.90
14122;DHT22;7139;48.114;11.442;2023-02-24T11:42:40;11.50;99.90
14122;DHT22;7139;48.114;11.442;2023-02-24T11:45:19;11.40;99.90
14122;DHT22;7139;48.114;11.442;2023-02-24T11:47:53;11.40;99.90
14122;DHT22;7139;48.114;11.442;2023-02-24T11:50:27;11.40;99.90
14122;DHT22;7139;48.114;11.442;2023-02-24T11:52:57;11.30;99.90
14122;DHT22;7139;48.114;11.442;2023-02-24T11:55:30;11.30;99.90
14122;DHT22;7139;48.114;11.442;2023-02-24T11:58:02;11.20;99.90
14122;DHT22;7139;48.114;11.442;2023-02-24T12:00:32;11.20;99.90
14122;DHT22;7139;48.114;11.442;2023-02-24T12:03:07;11.10;99.90
14122;DHT22;7139;48.114;11.442;2023-02-24T12:05:41;11.10;99.90
14122;DHT22;7139;48.114;11.442;2023-02-24T12:08:13;11.20;99.90
14122;DHT22;7139;48.114;11.442;2023-02-24T12:10:47;11.20;99.90
14122;DHT22;7139;48.114;11.442;2023-02-24T12:13:20;11.20;99.90
14122;DHT22;7139;48.114;11.442;2023-02-24T12:15:54;11.20;99.90
14122;DHT22;7139;48.114;11.442;2023-02-24T12:18:25;11.10;99.90
14122;DHT22;7139;48.114;11.442;2023-02-24T12:20:56;11.10;99.90
14122;DHT22;7139;48.114;11.442;2023-02-24T12:23:31;11.20;99.90
14122;DHT22;7139;48.114;11.442;2023-02-24T12:26:10;11.20;99.90
14122;DHT22;7139;48.114;11.442;2023-02-24T12:28:55;11.10;99.90
14122;DHT22;7139;48.114;11.442;2023-02-24T12:31:29;11.10;99.90
14122;DHT22;7139;48.114;11.442;2023-02-24T12:34:04;11.10;99.90
14122;DHT22;7139;48.114;11.442;2023-02-24T12:36:46;11.00;99.90
14122;DHT22;7139;48.114;11.442;2023-02-24T12:39:17;11.10;99.90
14122;DHT22;7139;48.114;11.442;2023-02-24T12:44:45;11.20;99.90
14122;DHT22;7139;48.114;11.442;2023-02-24T12:47:18;11.10;99.90
14122;DHT22;7139;48.114;11.442;2023-02-24T12:50:05;11.10;99.90
14122;DHT22;7139;48.114;11.442;2023-02-24T12:52:53;11.20;99.90
14122;DHT22;7139;48.114;11.442;2023-02-24T12:55:25;11.10;99.90
14122;DHT22;7139;48.114;11.442;2023-02-24T12:58:13;11.10;99.90
14122;DHT22;7139;48.114;11.442;2023-02-24T13:00:53;11.10;99.90
14122;DHT22;7139;48.114;11.442;2023-02-24T13:03:30;11.00;99.90
14122;DHT22;7139;48.114;11.442;2023-02-24T13:06:05;11.00;99.90
14122;DHT22;7139;48.114;11.442;2023-02-24T13:08:42;11.00;99.90
14122;DHT22;7139;48.114;11.442;2023-02-24T13:11:16;11.00;99.90
14122;DHT22;7139;48.114;11.442;2023-02-24T13:13:48;11.00;99.90
14122;DHT22;7139;48.114;11.442;2023-02-24T13:16:29;11.10;99.90
14122;DHT22;7139;48.114;11.442;2023-02-24T13:19:16;11.00;99.90
14122;DHT22;7139;48.114;11.442;2023-02-24T13:21:54;11.10;99.90
14122;DHT22;7139;48.114;11.442;2023-02-24T13:24:23;11.10;99.90
14122;DHT22;7139;48.114;11.442;2023-02-24T13:26:50;11.10;99.90
14122;DHT22;7139;48.114;11.442;2023-02-24T13:29:17;11.20;99.90
14122;DHT22;7139;48.114;11.442;2023-02-24T13:31:47;11.20;99.90
14122;DHT22;7139;48.114;11.442;2023-02-24T13:34:28;11.20;99.90
14122;DHT22;7139;48.114;11.442;2023-02-24T13:36:56;11.20;99.90
14122;DHT22;7139;48.114;11.442;2023-02-24T13:39:30;11.10;99.90
14122;DHT22;7139;48.114;11.442;2023-02-24T13:42:01;11.20;99.90
14122;DHT22;7139;48.114;11.442;2023-02-24T13:44:29;11.20;99.90
14122;DHT22;7139;48.114;11.442;2023-02-24T13:50:19;11.20;99.90
14122;DHT22;7139;48.114;11.442;2023-02-24T13:53:12;11.20;99.90
14122;DHT22;7139;48.114;11.442;2023-02-24T13:56:08;11.10;99.90
14122;DHT22;7139;48.114;11.442;2023-02-24T13:58:45;11.00;99.90
14122;DHT22;7139;48.114;11.442;2023-02-24T14:01:18;10.90;99.90
14122;DHT22;7139;48.114;11.442;2023-02-24T14:04:00;10.90;99.90
14122;DHT22;7139;48.114;11.442;2023-02-24T14:06:29;10.90;99.90
14122;DHT22;7139;48.114;11.442;2023-02-24T14:08:58;10.90;99.90
14122;DHT22;7139;48.114;11.442;2023-02-24T14:11:28;10.80;99.90
14122;DHT22;7139;48.114;11.442;2023-02-24T14:13:56;10.70;99.90
14122;DHT22;7139;48.114;11.442;2023-02-24T14:16:26;10.80;99.90
14122;DHT22;7139;48.114;11.442;2023-02-24T14:18:55;10.70;99.90
14122;DHT22;7139;48.114;11.442;2023-02-24T14:21:24;10.70;99.90
14122;DHT22;7139;48.114;11.442;2023-02-24T14:23:58;10.70;99.90
14122;DHT22;7139;48.114;11.442;2023-02-24T14:26:25;10.70;99.90
14122;DHT22;7139;48.114;11.442;2023-02-24T14:28:55;10.70;99.90
14122;DHT22;7139;48.114;11.442;2023-02-24T14:31:23;10.70;99.90
14122;DHT22;7139;48.114;11.442;2023-02-24T14:33:55;10.70;99.90
14122;DHT22;7139;48.114;11.442;2023-02-24T14:36:24;10.70;99.90
14122;DHT22;7139;48.114;11.442;2023-02-24T14:39:02;10.60;99.90
14122;DHT22;7139;48.114;11.442;2023-02-24T14:41:29;10.60;99.90
14122;DHT22;7139;48.114;11.442;2023-02-24T14:43:56;10.50;99.90
14122;DHT22;7139;48.114;11.442;2023-02-24T14:46:23;10.40;99.90
14122;DHT22;7139;48.114;11.442;2023-02-24T14:48:54;10.40;99.90
14122;DHT22;7139;48.114;11.442;2023-02-24T14:51:23;10.30;99.90
14122;DHT22;7139;48.114;11.442;2023-02-24T14:53:54;10.30;99.90
14122;DHT22;7139;48.114;11.442;2023-02-24T14:56:28;10.20;99.90
14122;DHT22;7139;48.114;11.442;2023-02-24T14:58:59;10.10;99.90
14122;DHT22;7139;48.114;11.442;2023-02-24T15:01:31;10.00;99.90
14122;DHT22;7139;48.114;11.442;2023-02-24T15:04:08;10.00;99.90
14122;DHT22;7139;48.114;11.442;2023-02-24T15:06:36;9.90;99.90
14122;DHT22;7139;48.114;11.442;2023-02-24T15:09:11;9.90;99.90
14122;DHT22;7139;48.114;11.442;2023-02-24T15:11:42;9.80;99.90
14122;DHT22;7139;48.114;11.442;2023-02-24T15:14:19;9.80;99.90
14122;DHT22;7139;48.114;11.442;2023-02-24T15:16:49;9.80;99.90
14122;DHT22;7139;48.114;11.442;2023-02-24T15:19:24;9.80;99.90
14122;DHT22;7139;48.114;11.442;2023-02-24T15:21:52;9.90;99.90
14122;DHT22;7139;48.114;11.442;2023-02-24T15:24:23;9.80;99.90
14122;DHT22;7139;48.114;11.442;2023-02-24T15:26:53;9.80;99.90
14122;DHT22;7139;48.114;11.442;2023-02-24T15:29:22;9.70;99.90
14122;DHT22;7139;48.114;11.442;2023-02-24T15:31:51;9.70;99.90
14122;DHT22;7139;48.114;11.442;2023-02-24T15:34:21;9.70;99.90
14122;DHT22;7139;48.114;11.442;2023-02-24T15:36:50;9.70;99.90
14122;DHT22;7139;48.114;11.442;2023-02-24T15:39:20;9.70;99.90
14122;DHT22;7139;48.114;11.442;2023-02-24T15:41:50;9.70;99.90
14122;DHT22;7139;48.114;11.442;2023-02-24T15:44:26;9.70;99.90
14122;DHT22;7139;48.114;11.442;2023-02-24T15:46:54;9.70;99.90
14122;DHT22;7139;48.114;11.442;2023-02-24T15:49:21;9.80;99.90
14122;DHT22;7139;48.114;11.442;2023-02-24T15:51:49;9.80;99.90
14122;DHT22;7139;48.114;11.442;2023-02-24T15:54:19;9.80;99.90
14122;DHT22;7139;48.114;11.442;2023-02-24T15:56:47;9.80;99.90
14122;DHT22;7139;48.114;11.442;2023-02-24T15:59:15;9.80;99.90
14122;DHT22;7139;48.114;11.442;2023-02-24T16:01:44;9.80;99.90
14122;DHT22;7139;48.114;11.442;2023-02-24T16:04:10;9.80;99.90
14122;DHT22;7139;48.114;11.442;2023-02-24T16:06:38;9.80;99.90
14122;DHT22;7139;48.114;11.442;2023-02-24T16:09:07;9.80;99.90
14122;DHT22;7139;48.114;11.442;2023-02-24T16:11:39;9.70;99.90
14122;DHT22;7139;48.114;11.442;2023-02-24T16:14:08;9.70;99.90
14122;DHT22;7139;48.114;11.442;2023-02-24T16:16:38;9.70;99.90
14122;DHT22;7139;48.114;11.442;2023-02-24T16:19:08;9.60;99.90
14122;DHT22;7139;48.114;11.442;2023-02-24T16:21:36;9.60;99.90